sensor_id;sensor_type;location;lat;lon;timestamp;P1;durP1;ratioP1;P2;durP2;ratioP2
75548;SDS011;64133;56.002;37.208;2023-03-22T00:01:38;10.93;;;5.25;;
75548;SDS011;64133;56.002;37.208;2023-03-22T00:06:43;11.28;;;4.72;;
75548;SDS011;64133;56.002;37.208;2023-03-22T00:11:47;8.58;;;4.28;;
75548;SDS011;64133;56.002;37.208;2023-03-22T00:16:52;9.78;;;4.37;;
75548;SDS011;64133;56.002;37.208;2023-03-22T00:21:57;7.92;;;3.67;;
75548;SDS011;64133;56.002;37.208;2023-03-22T00:27:02;6.87;;;3.80;;
75548;SDS011;64133;56.002;37.208;2023-03-22T00:32:07;7.87;;;3.87;;
75548;SDS011;64133;56.002;37.208;2023-03-22T00:37:11;7.08;;;3.52;;
75548;SDS011;64133;56.002;37.208;2023-03-22T00:42:17;7.85;;;3.50;;
75548;SDS011;64133;56.002;37.208;2023-03-22T00:47:21;7.37;;;3.47;;
75548;SDS011;64133;56.002;37.208;2023-03-22T00:52:26;8.33;;;3.33;;
75548;SDS011;64133;56.002;37.208;2023-03-22T00:57:31;5.78;;;2.92;;
75548;SDS011;64133;56.002;37.208;2023-03-22T01:02:35;7.72;;;2.90;;
75548;SDS011;64133;56.002;37.208;2023-03-22T01:07:40;5.35;;;2.85;;
75548;SDS011;64133;56.002;37.208;2023-03-22T01:12:45;5.62;;;2.45;;
75548;SDS011;64133;56.002;37.208;2023-03-22T01:17:50;4.85;;;2.62;;
75548;SDS011;64133;56.002;37.208;2023-03-22T01:22:54;6.30;;;2.42;;
75548;SDS011;64133;56.002;37.208;2023-03-22T01:27:59;3.80;;;1.98;;
75548;SDS011;64133;56.002;37.208;2023-03-22T01:33:04;5.22;;;2.47;;
75548;SDS011;64133;56.002;37.208;2023-03-22T01:38:08;4.30;;;2.20;;
75548;SDS011;64133;56.002;37.208;2023-03-22T01:43:13;4.80;;;2.08;;
75548;SDS011;64133;56.002;37.208;2023-03-22T01:48:22;4.60;;;2.20;;
75548;SDS011;64133;56.002;37.208;2023-03-22T01:53:38;4.33;;;2.50;;
75548;SDS011;64133;56.002;37.208;2023-03-22T01:58:42;3.95;;;2.20;;
75548;SDS011;64133;56.002;37.208;2023-03-22T02:03:47;4.17;;;2.60;;
75548;SDS011;64133;56.002;37.208;2023-03-22T02:08:51;4.45;;;2.00;;
75548;SDS011;64133;56.002;37.208;2023-03-22T02:14:10;3.67;;;2.35;;
75548;SDS011;64133;56.002;37.208;2023-03-22T02:19:43;4.55;;;2.40;;
75548;SDS011;64133;56.002;37.208;2023-03-22T02:25:10;5.03;;;2.20;;
75548;SDS011;64133;56.002;37.208;2023-03-22T02:30:29;4.00;;;1.90;;
75548;SDS011;64133;56.002;37.208;2023-03-22T02:35:50;3.75;;;1.90;;
75548;SDS011;64133;56.002;37.208;2023-03-22T02:40:58;2.42;;;1.50;;
75548;SDS011;64133;56.002;37.208;2023-03-22T02:46:04;2.60;;;1.50;;
75548;SDS011;64133;56.002;37.208;2023-03-22T02:51:10;2.58;;;1.50;;
75548;SDS011;64133;56.002;37.208;2023-03-22T02:56:15;2.27;;;1.50;;
75548;SDS011;64133;56.002;37.208;2023-03-22T03:01:20;2.12;;;1.20;;
75548;SDS011;64133;56.002;37.208;2023-03-22T03:06:25;1.62;;;0.90;;
75548;SDS011;64133;56.002;37.208;2023-03-22T03:11:30;1.75;;;1.27;;
75548;SDS011;64133;56.002;37.208;2023-03-22T03:16:34;3.22;;;1.80;;
75548;SDS011;64133;56.002;37.208;2023-03-22T03:21:41;1.92;;;0.93;;
75548;SDS011;64133;56.002;37.208;2023-03-22T03:26:45;2.08;;;0.90;;
75548;SDS011;64133;56.002;37.208;2023-03-22T03:31:51;2.67;;;1.25;;
75548;SDS011;64133;56.002;37.208;2023-03-22T03:36:56;2.42;;;1.20;;
75548;SDS011;64133;56.002;37.208;2023-03-22T03:42:00;2.30;;;1.20;;
75548;SDS011;64133;56.002;37.208;2023-03-22T03:47:05;2.72;;;1.72;;
75548;SDS011;64133;56.002;37.208;2023-03-22T03:52:10;2.45;;;1.47;;
75548;SDS011;64133;56.002;37.208;2023-03-22T03:57:15;3.70;;;2.00;;
75548;SDS011;64133;56.002;37.208;2023-03-22T04:02:20;2.60;;;1.67;;
75548;SDS011;64133;56.002;37.208;2023-03-22T04:07:24;2.40;;;1.62;;
75548;SDS011;64133;56.002;37.208;2023-03-22T04:12:29;2.20;;;1.52;;
75548;SDS011;64133;56.002;37.208;2023-03-22T04:17:33;2.10;;;1.62;;
75548;SDS011;64133;56.002;37.208;2023-03-22T04:22:38;3.35;;;1.42;;
75548;SDS011;64133;56.002;37.208;2023-03-22T04:27:43;2.27;;;1.70;;
75548;SDS011;64133;56.002;37.208;2023-03-22T04:32:47;2.72;;;2.10;;
75548;SDS011;64133;56.002;37.208;2023-03-22T04:37:52;2.72;;;1.85;;
75548;SDS011;64133;56.002;37.208;2023-03-22T04:42:57;2.83;;;1.72;;
75548;SDS011;64133;56.002;37.208;2023-03-22T04:48:02;2.80;;;1.50;;
75548;SDS011;64133;56.002;37.208;2023-03-22T04:53:06;2.22;;;1.60;;
75548;SDS011;64133;56.002;37.208;2023-03-22T04:58:11;4.00;;;1.25;;
75548;SDS011;64133;56.002;37.208;2023-03-22T05:03:16;2.10;;;1.50;;
75548;SDS011;64133;56.002;37.208;2023-03-22T05:08:21;2.52;;;1.30;;
75548;SDS011;64133;56.002;37.208;2023-03-22T05:13:26;3.42;;;1.90;;
75548;SDS011;64133;56.002;37.208;2023-03-22T05:18:31;5.33;;;2.00;;
75548;SDS011;64133;56.002;37.208;2023-03-22T05:23:36;2.80;;;1.85;;
75548;SDS011;64133;56.002;37.208;2023-03-22T05:28:40;2.33;;;1.47;;
75548;SDS011;64133;56.002;37.208;2023-03-22T05:33:45;7.78;;;1.70;;
75548;SDS011;64133;56.002;37.208;2023-03-22T05:38:49;2.22;;;1.60;;
75548;SDS011;64133;56.002;37.208;2023-03-22T05:43:54;3.35;;;1.70;;
75548;SDS011;64133;56.002;37.208;2023-03-22T05:48:59;4.37;;;2.55;;
75548;SDS011;64133;56.002;37.208;2023-03-22T05:54:04;3.05;;;1.60;;
75548;SDS011;64133;56.002;37.208;2023-03-22T05:59:08;2.25;;;1.02;;
75548;SDS011;64133;56.002;37.208;2023-03-22T06:04:13;4.40;;;3.10;;
75548;SDS011;64133;56.002;37.208;2023-03-22T06:09:18;1.55;;;0.95;;
75548;SDS011;64133;56.002;37.208;2023-03-22T06:14:22;1.50;;;0.95;;
75548;SDS011;64133;56.002;37.208;2023-03-22T06:19:27;1.95;;;0.70;;
75548;SDS011;64133;56.002;37.208;2023-03-22T06:24:32;2.37;;;1.57;;
75548;SDS011;64133;56.002;37.208;2023-03-22T06:29:36;1.72;;;1.35;;
75548;SDS011;64133;56.002;37.208;2023-03-22T06:34:41;2.22;;;1.00;;
75548;SDS011;64133;56.002;37.208;2023-03-22T06:39:46;1.80;;;1.00;;
75548;SDS011;64133;56.002;37.208;2023-03-22T06:44:51;10.20;;;1.65;;
75548;SDS011;64133;56.002;37.208;2023-03-22T06:49:56;10.55;;;1.82;;
75548;SDS011;64133;56.002;37.208;2023-03-22T06:55:00;4.03;;;1.65;;
75548;SDS011;64133;56.002;37.208;2023-03-22T07:00:07;2.33;;;1.40;;
75548;SDS011;64133;56.002;37.208;2023-03-22T07:05:14;6.12;;;1.50;;
75548;SDS011;64133;56.002;37.208;2023-03-22T07:10:19;6.65;;;1.15;;
75548;SDS011;64133;56.002;37.208;2023-03-22T07:15:24;4.75;;;1.20;;
75548;SDS011;64133;56.002;37.208;2023-03-22T07:20:28;11.45;;;2.12;;
75548;SDS011;64133;56.002;37.208;2023-03-22T07:25:33;2.85;;;1.10;;
75548;SDS011;64133;56.002;37.208;2023-03-22T07:30:38;5.33;;;1.90;;
75548;SDS011;64133;56.002;37.208;2023-03-22T07:35:42;1.90;;;1.37;;
75548;SDS011;64133;56.002;37.208;2023-03-22T07:40:47;2.02;;;1.30;;
75548;SDS011;64133;56.002;37.208;2023-03-22T07:45:52;1.77;;;1.20;;
75548;SDS011;64133;56.002;37.208;2023-03-22T07:50:56;3.15;;;1.27;;
75548;SDS011;64133;56.002;37.208;2023-03-22T07:56:01;1.20;;;0.85;;
75548;SDS011;64133;56.002;37.208;2023-03-22T08:01:07;2.87;;;1.35;;
75548;SDS011;64133;56.002;37.208;2023-03-22T08:06:12;7.65;;;1.92;;
75548;SDS011;64133;56.002;37.208;2023-03-22T08:11:17;9.33;;;2.40;;
75548;SDS011;64133;56.002;37.208;2023-03-22T08:16:21;4.95;;;1.20;;
75548;SDS011;64133;56.002;37.208;2023-03-22T08:21:26;12.60;;;3.02;;
75548;SDS011;64133;56.002;37.208;2023-03-22T08:26:31;6.90;;;1.82;;
75548;SDS011;64133;56.002;37.208;2023-03-22T08:31:35;3.75;;;1.30;;
75548;SDS011;64133;56.002;37.208;2023-03-22T08:36:40;1.57;;;0.72;;
75548;SDS011;64133;56.002;37.208;2023-03-22T08:41:45;9.68;;;1.47;;
75548;SDS011;64133;56.002;37.208;2023-03-22T08:46:50;2.37;;;1.00;;
75548;SDS011;64133;56.002;37.208;2023-03-22T08:51:54;2.35;;;0.88;;
75548;SDS011;64133;56.002;37.208;2023-03-22T08:56:59;2.72;;;1.17;;
75548;SDS011;64133;56.002;37.208;2023-03-22T09:02:05;1.47;;;1.00;;
75548;SDS011;64133;56.002;37.208;2023-03-22T09:07:09;2.00;;;0.90;;
75548;SDS011;64133;56.002;37.208;2023-03-22T09:12:14;2.35;;;1.45;;
75548;SDS011;64133;56.002;37.208;2023-03-22T09:17:19;7.62;;;1.30;;
75548;SDS011;64133;56.002;37.208;2023-03-22T09:22:23;1.37;;;0.78;;
75548;SDS011;64133;56.002;37.208;2023-03-22T09:27:28;2.10;;;1.10;;
75548;SDS011;64133;56.002;37.208;2023-03-22T09:32:42;1.90;;;1.10;;
75548;SDS011;64133;56.002;37.208;2023-03-22T09:37:47;2.27;;;1.22;;
75548;SDS011;64133;56.002;37.208;2023-03-22T09:42:52;1.87;;;1.00;;
75548;SDS011;64133;56.002;37.208;2023-03-22T09:47:56;2.35;;;1.02;;
75548;SDS011;64133;56.002;37.208;2023-03-22T09:53:01;2.60;;;0.80;;
75548;SDS011;64133;56.002;37.208;2023-03-22T09:58:07;2.40;;;1.05;;
75548;SDS011;64133;56.002;37.208;2023-03-22T10:03:20;2.33;;;1.00;;
75548;SDS011;64133;56.002;37.208;2023-03-22T10:08:27;5.05;;;0.90;;
75548;SDS011;64133;56.002;37.208;2023-03-22T10:13:55;1.92;;;1.00;;
75548;SDS011;64133;56.002;37.208;2023-03-22T10:19:02;2.35;;;0.70;;
75548;SDS011;64133;56.002;37.208;2023-03-22T10:24:08;1.80;;;0.95;;
75548;SDS011;64133;56.002;37.208;2023-03-22T10:29:14;2.37;;;0.88;;
75548;SDS011;64133;56.002;37.208;2023-03-22T10:34:20;1.30;;;0.70;;
75548;SDS011;64133;56.002;37.208;2023-03-22T10:39:29;1.25;;;0.50;;
75548;SDS011;64133;56.002;37.208;2023-03-22T10:44:34;7.50;;;1.32;;
75548;SDS011;64133;56.002;37.208;2023-03-22T10:49:38;2.80;;;1.22;;
75548;SDS011;64133;56.002;37.208;2023-03-22T10:54:42;1.37;;;0.60;;
75548;SDS011;64133;56.002;37.208;2023-03-22T10:59:47;2.60;;;1.07;;
75548;SDS011;64133;56.002;37.208;2023-03-22T11:04:53;2.60;;;0.88;;
75548;SDS011;64133;56.002;37.208;2023-03-22T11:09:58;9.48;;;1.65;;
75548;SDS011;64133;56.002;37.208;2023-03-22T11:15:10;9.80;;;0.85;;
75548;SDS011;64133;56.002;37.208;2023-03-22T11:20:21;4.20;;;0.68;;
75548;SDS011;64133;56.002;37.208;2023-03-22T11:25:26;5.95;;;1.12;;
75548;SDS011;64133;56.002;37.208;2023-03-22T11:30:30;1.10;;;0.50;;
75548;SDS011;64133;56.002;37.208;2023-03-22T11:35:36;4.67;;;1.07;;
75548;SDS011;64133;56.002;37.208;2023-03-22T11:40:40;24.10;;;2.62;;
75548;SDS011;64133;56.002;37.208;2023-03-22T11:45:44;1.37;;;0.60;;
75548;SDS011;64133;56.002;37.208;2023-03-22T11:50:50;3.52;;;0.75;;
75548;SDS011;64133;56.002;37.208;2023-03-22T11:55:55;3.77;;;1.37;;
75548;SDS011;64133;56.002;37.208;2023-03-22T12:00:59;1.35;;;0.50;;
75548;SDS011;64133;56.002;37.208;2023-03-22T12:06:05;5.35;;;1.12;;
75548;SDS011;64133;56.002;37.208;2023-03-22T12:11:11;1.22;;;0.50;;
75548;SDS011;64133;56.002;37.208;2023-03-22T12:16:16;2.08;;;1.00;;
75548;SDS011;64133;56.002;37.208;2023-03-22T12:21:20;1.30;;;0.53;;
75548;SDS011;64133;56.002;37.208;2023-03-22T12:26:26;2.08;;;0.40;;
75548;SDS011;64133;56.002;37.208;2023-03-22T12:31:31;1.30;;;0.50;;
75548;SDS011;64133;56.002;37.208;2023-03-22T12:36:36;1.85;;;0.37;;
75548;SDS011;64133;56.002;37.208;2023-03-22T12:41:41;1.15;;;0.50;;
75548;SDS011;64133;56.002;37.208;2023-03-22T12:46:47;1.57;;;0.70;;
75548;SDS011;64133;56.002;37.208;2023-03-22T12:52:01;1.12;;;0.53;;
75548;SDS011;64133;56.002;37.208;2023-03-22T12:57:04;3.67;;;0.80;;
75548;SDS011;64133;56.002;37.208;2023-03-22T13:02:12;2.17;;;1.00;;
75548;SDS011;64133;56.002;37.208;2023-03-22T13:07:29;1.72;;;0.90;;
75548;SDS011;64133;56.002;37.208;2023-03-22T13:12:33;10.05;;;1.75;;
75548;SDS011;64133;56.002;37.208;2023-03-22T13:17:39;2.37;;;0.75;;
75548;SDS011;64133;56.002;37.208;2023-03-22T13:28:37;2.50;;;0.75;;
75548;SDS011;64133;56.002;37.208;2023-03-22T13:33:42;7.37;;;1.60;;
75548;SDS011;64133;56.002;37.208;2023-03-22T13:38:52;1.35;;;0.50;;
75548;SDS011;64133;56.002;37.208;2023-03-22T13:43:56;1.30;;;0.60;;
75548;SDS011;64133;56.002;37.208;2023-03-22T13:54:57;8.90;;;1.15;;
75548;SDS011;64133;56.002;37.208;2023-03-22T14:00:04;2.25;;;0.60;;
75548;SDS011;64133;56.002;37.208;2023-03-22T14:05:12;4.65;;;1.15;;
75548;SDS011;64133;56.002;37.208;2023-03-22T14:10:16;2.27;;;0.78;;
75548;SDS011;64133;56.002;37.208;2023-03-22T14:15:22;5.87;;;0.80;;
75548;SDS011;64133;56.002;37.208;2023-03-22T14:20:28;4.10;;;0.60;;
75548;SDS011;64133;56.002;37.208;2023-03-22T14:25:33;2.42;;;0.90;;
75548;SDS011;64133;56.002;37.208;2023-03-22T14:30:37;1.50;;;0.70;;
75548;SDS011;64133;56.002;37.208;2023-03-22T14:35:45;2.60;;;1.00;;
75548;SDS011;64133;56.002;37.208;2023-03-22T14:40:47;3.27;;;1.22;;
75548;SDS011;64133;56.002;37.208;2023-03-22T14:46:01;1.72;;;0.80;;
75548;SDS011;64133;56.002;37.208;2023-03-22T14:51:06;2.65;;;0.70;;
75548;SDS011;64133;56.002;37.208;2023-03-22T14:56:13;1.52;;;0.60;;
75548;SDS011;64133;56.002;37.208;2023-03-22T15:01:18;1.72;;;0.70;;
75548;SDS011;64133;56.002;37.208;2023-03-22T15:06:24;3.10;;;1.15;;
75548;SDS011;64133;56.002;37.208;2023-03-22T15:11:29;2.60;;;0.80;;
75548;SDS011;64133;56.002;37.208;2023-03-22T15:16:34;2.20;;;0.90;;
75548;SDS011;64133;56.002;37.208;2023-03-22T15:21:39;2.02;;;0.75;;
75548;SDS011;64133;56.002;37.208;2023-03-22T15:26:43;1.80;;;0.72;;
75548;SDS011;64133;56.002;37.208;2023-03-22T15:31:48;2.02;;;0.70;;
75548;SDS011;64133;56.002;37.208;2023-03-22T15:36:53;0.82;;;0.40;;
75548;SDS011;64133;56.002;37.208;2023-03-22T15:42:03;1.85;;;0.72;;
75548;SDS011;64133;56.002;37.208;2023-03-22T15:47:13;1.75;;;0.80;;
75548;SDS011;64133;56.002;37.208;2023-03-22T15:52:18;4.22;;;0.90;;
75548;SDS011;64133;56.002;37.208;2023-03-22T15:57:23;3.72;;;1.10;;
75548;SDS011;64133;56.002;37.208;2023-03-22T16:02:28;2.22;;;1.05;;
75548;SDS011;64133;56.002;37.208;2023-03-22T16:07:32;2.58;;;1.10;;
75548;SDS011;64133;56.002;37.208;2023-03-22T16:12:37;2.62;;;1.20;;
75548;SDS011;64133;56.002;37.208;2023-03-22T16:17:41;2.33;;;1.10;;
75548;SDS011;64133;56.002;37.208;2023-03-22T16:22:47;1.87;;;0.90;;
75548;SDS011;64133;56.002;37.208;2023-03-22T16:27:51;2.27;;;1.10;;
75548;SDS011;64133;56.002;37.208;2023-03-22T16:32:55;2.67;;;1.32;;
75548;SDS011;64133;56.002;37.208;2023-03-22T16:38:00;2.75;;;1.17;;
75548;SDS011;64133;56.002;37.208;2023-03-22T16:43:07;2.00;;;1.15;;
75548;SDS011;64133;56.002;37.208;2023-03-22T16:48:11;2.55;;;1.35;;
75548;SDS011;64133;56.002;37.208;2023-03-22T16:53:16;3.47;;;1.32;;
75548;SDS011;64133;56.002;37.208;2023-03-22T16:58:20;4.83;;;1.57;;
75548;SDS011;64133;56.002;37.208;2023-03-22T17:03:25;3.33;;;1.37;;
75548;SDS011;64133;56.002;37.208;2023-03-22T17:08:30;2.62;;;1.40;;
75548;SDS011;64133;56.002;37.208;2023-03-22T17:13:35;3.08;;;1.45;;
75548;SDS011;64133;56.002;37.208;2023-03-22T17:18:39;4.25;;;1.82;;
75548;SDS011;64133;56.002;37.208;2023-03-22T17:23:44;3.45;;;1.50;;
75548;SDS011;64133;56.002;37.208;2023-03-22T17:28:49;3.92;;;1.70;;
75548;SDS011;64133;56.002;37.208;2023-03-22T17:33:53;3.17;;;1.62;;
75548;SDS011;64133;56.002;37.208;2023-03-22T17:38:58;3.37;;;2.05;;
75548;SDS011;64133;56.002;37.208;2023-03-22T17:44:03;3.12;;;1.65;;
75548;SDS011;64133;56.002;37.208;2023-03-22T17:49:08;2.90;;;1.60;;
75548;SDS011;64133;56.002;37.208;2023-03-22T17:54:12;3.50;;;1.77;;
75548;SDS011;64133;56.002;37.208;2023-03-22T17:59:17;3.92;;;1.75;;
75548;SDS011;64133;56.002;37.208;2023-03-22T18:04:22;6.95;;;2.22;;
75548;SDS011;64133;56.002;37.208;2023-03-22T18:09:26;1.52;;;0.57;;
75548;SDS011;64133;56.002;37.208;2023-03-22T18:14:31;3.58;;;1.57;;
75548;SDS011;64133;56.002;37.208;2023-03-22T18:19:36;3.45;;;1.90;;
75548;SDS011;64133;56.002;37.208;2023-03-22T18:24:40;3.62;;;1.12;;
75548;SDS011;64133;56.002;37.208;2023-03-22T18:29:45;1.77;;;0.85;;
75548;SDS011;64133;56.002;37.208;2023-03-22T18:34:50;3.37;;;1.35;;
75548;SDS011;64133;56.002;37.208;2023-03-22T18:39:55;2.62;;;1.72;;
75548;SDS011;64133;56.002;37.208;2023-03-22T18:44:59;2.87;;;1.10;;
75548;SDS011;64133;56.002;37.208;2023-03-22T18:50:05;2.75;;;1.30;;
75548;SDS011;64133;56.002;37.208;2023-03-22T18:55:10;2.83;;;1.52;;
75548;SDS011;64133;56.002;37.208;2023-03-22T19:00:16;2.00;;;1.30;;
75548;SDS011;64133;56.002;37.208;2023-03-22T19:05:21;1.32;;;0.62;;
75548;SDS011;64133;56.002;37.208;2023-03-22T19:10:26;1.77;;;1.07;;
75548;SDS011;64133;56.002;37.208;2023-03-22T19:15:30;2.92;;;1.10;;
75548;SDS011;64133;56.002;37.208;2023-03-22T19:20:35;2.62;;;1.55;;
75548;SDS011;64133;56.002;37.208;2023-03-22T19:25:40;3.50;;;1.30;;
75548;SDS011;64133;56.002;37.208;2023-03-22T19:30:45;2.25;;;1.40;;
75548;SDS011;64133;56.002;37.208;2023-03-22T19:35:50;2.92;;;1.25;;
75548;SDS011;64133;56.002;37.208;2023-03-22T19:40:59;2.15;;;1.22;;
75548;SDS011;64133;56.002;37.208;2023-03-22T19:46:03;4.42;;;1.95;;
75548;SDS011;64133;56.002;37.208;2023-03-22T19:51:08;2.85;;;1.52;;
75548;SDS011;64133;56.002;37.208;2023-03-22T19:56:12;4.85;;;1.62;;
75548;SDS011;64133;56.002;37.208;2023-03-22T20:01:17;3.00;;;1.40;;
75548;SDS011;64133;56.002;37.208;2023-03-22T20:06:22;2.85;;;1.32;;
75548;SDS011;64133;56.002;37.208;2023-03-22T20:11:27;2.90;;;1.57;;
75548;SDS011;64133;56.002;37.208;2023-03-22T20:16:31;2.58;;;1.40;;
75548;SDS011;64133;56.002;37.208;2023-03-22T20:21:36;2.83;;;1.50;;
75548;SDS011;64133;56.002;37.208;2023-03-22T20:26:40;3.25;;;1.60;;
75548;SDS011;64133;56.002;37.208;2023-03-22T20:31:45;2.30;;;1.40;;
75548;SDS011;64133;56.002;37.208;2023-03-22T20:36:49;2.95;;;1.42;;
75548;SDS011;64133;56.002;37.208;2023-03-22T20:41:55;2.80;;;1.50;;
75548;SDS011;64133;56.002;37.208;2023-03-22T20:46:59;3.80;;;1.72;;
75548;SDS011;64133;56.002;37.208;2023-03-22T20:52:04;4.22;;;1.70;;
75548;SDS011;64133;56.002;37.208;2023-03-22T20:57:09;4.50;;;2.35;;
75548;SDS011;64133;56.002;37.208;2023-03-22T21:02:13;3.77;;;1.72;;
75548;SDS011;64133;56.002;37.208;2023-03-22T21:07:18;2.52;;;1.27;;
75548;SDS011;64133;56.002;37.208;2023-03-22T21:12:23;3.10;;;1.30;;
75548;SDS011;64133;56.002;37.208;2023-03-22T21:17:27;4.15;;;1.60;;
75548;SDS011;64133;56.002;37.208;2023-03-22T21:22:32;2.33;;;1.30;;
75548;SDS011;64133;56.002;37.208;2023-03-22T21:27:37;3.25;;;1.37;;
75548;SDS011;64133;56.002;37.208;2023-03-22T21:32:42;2.45;;;1.32;;
75548;SDS011;64133;56.002;37.208;2023-03-22T21:37:56;2.50;;;1.22;;
75548;SDS011;64133;56.002;37.208;2023-03-22T21:43:01;3.02;;;1.80;;
75548;SDS011;64133;56.002;37.208;2023-03-22T21:48:06;2.60;;;1.40;;
75548;SDS011;64133;56.002;37.208;2023-03-22T21:53:12;3.05;;;1.57;;
75548;SDS011;64133;56.002;37.208;2023-03-22T21:58:18;1.90;;;1.12;;
75548;SDS011;64133;56.002;37.208;2023-03-22T22:03:22;2.52;;;1.55;;
75548;SDS011;64133;56.002;37.208;2023-03-22T22:08:27;2.65;;;1.50;;
75548;SDS011;64133;56.002;37.208;2023-03-22T22:13:31;4.00;;;1.52;;
75548;SDS011;64133;56.002;37.208;2023-03-22T22:18:36;1.95;;;1.40;;
75548;SDS011;64133;56.002;37.208;2023-03-22T22:23:42;3.60;;;1.77;;
75548;SDS011;64133;56.002;37.208;2023-03-22T22:28:46;5.17;;;2.15;;
75548;SDS011;64133;56.002;37.208;2023-03-22T22:33:51;3.02;;;1.65;;
75548;SDS011;64133;56.002;37.208;2023-03-22T22:38:55;6.35;;;2.40;;
75548;SDS011;64133;56.002;37.208;2023-03-22T22:44:00;3.87;;;2.10;;
75548;SDS011;64133;56.002;37.208;2023-03-22T22:49:04;3.90;;;2.35;;
75548;SDS011;64133;56.002;37.208;2023-03-22T22:54:09;3.95;;;2.52;;
75548;SDS011;64133;56.002;37.208;2023-03-22T22:59:14;4.10;;;2.83;;
75548;SDS011;64133;56.002;37.208;2023-03-22T23:04:18;4.28;;;2.83;;
75548;SDS011;64133;56.002;37.208;2023-03-22T23:09:23;6.08;;;3.00;;
75548;SDS011;64133;56.002;37.208;2023-03-22T23:14:28;2.70;;;2.20;;
75548;SDS011;64133;56.002;37.208;2023-03-22T23:19:32;4.67;;;2.72;;
75548;SDS011;64133;56.002;37.208;2023-03-22T23:24:37;4.83;;;2.75;;
75548;SDS011;64133;56.002;37.208;2023-03-22T23:29:42;4.70;;;2.83;;
75548;SDS011;64133;56.002;37.208;2023-03-22T23:34:46;3.60;;;2.12;;
75548;SDS011;64133;56.002;37.208;2023-03-22T23:39:51;4.17;;;2.25;;
75548;SDS011;64133;56.002;37.208;2023-03-22T23:44:56;3.92;;;2.35;;
75548;SDS011;64133;56.002;37.208;2023-03-22T23:50:01;4.95;;;2.22;;
75548;SDS011;64133;56.002;37.208;2023-03-22T23:55:06;4.35;;;2.15;;
